sensor_id;sensor_type;location;lat;lon;timestamp;pressure;altitude;pressure_sealevel;temperature;humidity
25430;BME280;13360;48.152;-1.788;2023-01-13T00:02:15;102524.03;;;12.74;100.00
25430;BME280;13360;48.152;-1.788;2023-01-13T00:04:40;102511.81;;;12.75;100.00
25430;BME280;13360;48.152;-1.788;2023-01-13T00:07:06;102507.94;;;12.76;100.00
25430;BME280;13360;48.152;-1.788;2023-01-13T00:09:31;102487.44;;;12.77;100.00
25430;BME280;13360;48.152;-1.788;2023-01-13T00:11:56;102491.34;;;12.87;100.00
25430;BME280;13360;48.152;-1.788;2023-01-13T00:14:22;102473.53;;;12.72;100.00
25430;BME280;13360;48.152;-1.788;2023-01-13T00:16:47;102467.94;;;12.62;100.00
25430;BME280;13360;48.152;-1.788;2023-01-13T00:19:13;102464.13;;;12.73;100.00
25430;BME280;13360;48.152;-1.788;2023-01-13T00:21:38;102446.88;;;12.66;100.00
25430;BME280;13360;48.152;-1.788;2023-01-13T00:24:04;102442.97;;;12.57;100.00
25430;BME280;13360;48.152;-1.788;2023-01-13T00:26:29;102450.44;;;12.57;100.00
25430;BME280;13360;48.152;-1.788;2023-01-13T00:28:58;102465.78;;;12.74;100.00
25430;BME280;13360;48.152;-1.788;2023-01-13T00:31:24;102448.59;;;12.72;100.00
25430;BME280;13360;48.152;-1.788;2023-01-13T00:33:49;102447.53;;;12.83;100.00
25430;BME280;13360;48.152;-1.788;2023-01-13T00:36:17;102445.91;;;12.93;100.00
25430;BME280;13360;48.152;-1.788;2023-01-13T00:38:43;102429.78;;;12.90;100.00
25430;BME280;13360;48.152;-1.788;2023-01-13T00:41:14;102433.09;;;12.87;100.00
25430;BME280;13360;48.152;-1.788;2023-01-13T00:43:40;102443.66;;;12.90;100.00
25430;BME280;13360;48.152;-1.788;2023-01-13T00:46:08;102424.25;;;12.90;100.00
25430;BME280;13360;48.152;-1.788;2023-01-13T00:48:34;102444.75;;;12.89;100.00
25430;BME280;13360;48.152;-1.788;2023-01-13T00:51:02;102424.19;;;12.74;100.00
25430;BME280;13360;48.152;-1.788;2023-01-13T00:53:32;102437.50;;;12.72;100.00
25430;BME280;13360;48.152;-1.788;2023-01-13T00:58:40;102452.38;;;12.56;100.00
25430;BME280;13360;48.152;-1.788;2023-01-13T01:01:08;102463.75;;;12.60;100.00
25430;BME280;13360;48.152;-1.788;2023-01-13T01:03:34;102444.63;;;12.58;100.00
25430;BME280;13360;48.152;-1.788;2023-01-13T01:06:05;102422.16;;;12.49;100.00
25430;BME280;13360;48.152;-1.788;2023-01-13T01:08:32;102446.03;;;12.61;100.00
25430;BME280;13360;48.152;-1.788;2023-01-13T01:13:27;102423.84;;;12.61;100.00
25430;BME280;13360;48.152;-1.788;2023-01-13T01:15:53;102409.69;;;12.57;100.00
25430;BME280;13360;48.152;-1.788;2023-01-13T01:18:18;102382.19;;;12.45;100.00
25430;BME280;13360;48.152;-1.788;2023-01-13T01:20:43;102408.88;;;12.57;100.00
25430;BME280;13360;48.152;-1.788;2023-01-13T01:23:09;102373.28;;;12.38;100.00
25430;BME280;13360;48.152;-1.788;2023-01-13T01:25:34;102395.75;;;12.42;100.00
25430;BME280;13360;48.152;-1.788;2023-01-13T01:27:59;102380.22;;;12.36;100.00
25430;BME280;13360;48.152;-1.788;2023-01-13T01:30:25;102372.72;;;12.31;100.00
25430;BME280;13360;48.152;-1.788;2023-01-13T01:32:50;102362.06;;;12.13;100.00
25430;BME280;13360;48.152;-1.788;2023-01-13T01:35:15;102389.56;;;12.25;100.00
25430;BME280;13360;48.152;-1.788;2023-01-13T01:37:41;102376.25;;;12.27;100.00
25430;BME280;13360;48.152;-1.788;2023-01-13T01:40:07;102348.50;;;12.11;100.00
25430;BME280;13360;48.152;-1.788;2023-01-13T01:42:32;102347.69;;;12.16;100.00
25430;BME280;13360;48.152;-1.788;2023-01-13T01:45:21;102350.81;;;12.30;100.00
25430;BME280;13360;48.152;-1.788;2023-01-13T01:47:52;102346.38;;;12.29;100.00
25430;BME280;13360;48.152;-1.788;2023-01-13T01:50:20;102330.28;;;12.26;100.00
25430;BME280;13360;48.152;-1.788;2023-01-13T01:52:50;102316.09;;;12.17;100.00
25430;BME280;13360;48.152;-1.788;2023-01-13T01:55:20;102320.28;;;12.19;100.00
25430;BME280;13360;48.152;-1.788;2023-01-13T01:58:01;102319.72;;;12.23;100.00
25430;BME280;13360;48.152;-1.788;2023-01-13T02:00:29;102313.97;;;12.29;100.00
25430;BME280;13360;48.152;-1.788;2023-01-13T02:02:55;102298.69;;;12.27;100.00
25430;BME280;13360;48.152;-1.788;2023-01-13T02:05:21;102298.41;;;12.28;100.00
25430;BME280;13360;48.152;-1.788;2023-01-13T02:07:49;102291.75;;;12.24;100.00
25430;BME280;13360;48.152;-1.788;2023-01-13T02:10:18;102285.66;;;12.22;100.00
25430;BME280;13360;48.152;-1.788;2023-01-13T02:12:46;102277.88;;;12.14;100.00
25430;BME280;13360;48.152;-1.788;2023-01-13T02:15:20;102279.00;;;12.18;100.00
25430;BME280;13360;48.152;-1.788;2023-01-13T02:18:02;102274.50;;;12.07;100.00
25430;BME280;13360;48.152;-1.788;2023-01-13T02:23:39;102275.94;;;12.14;100.00
25430;BME280;13360;48.152;-1.788;2023-01-13T02:35:21;102244.63;;;12.09;100.00
25430;BME280;13360;48.152;-1.788;2023-01-13T02:37:49;102244.63;;;12.14;100.00
25430;BME280;13360;48.152;-1.788;2023-01-13T02:40:25;102253.78;;;12.19;100.00
25430;BME280;13360;48.152;-1.788;2023-01-13T02:43:18;102236.06;;;12.15;100.00
25430;BME280;13360;48.152;-1.788;2023-01-13T02:46:31;102229.63;;;12.05;100.00
25430;BME280;13360;48.152;-1.788;2023-01-13T02:49:03;102236.59;;;12.12;100.00
25430;BME280;13360;48.152;-1.788;2023-01-13T02:51:29;102228.84;;;12.14;100.00
25430;BME280;13360;48.152;-1.788;2023-01-13T02:54:00;102237.72;;;12.16;100.00
25430;BME280;13360;48.152;-1.788;2023-01-13T02:56:28;102244.09;;;12.22;100.00
25430;BME280;13360;48.152;-1.788;2023-01-13T02:58:56;102248.81;;;12.27;100.00
25430;BME280;13360;48.152;-1.788;2023-01-13T03:01:22;102244.38;;;12.26;100.00
25430;BME280;13360;48.152;-1.788;2023-01-13T03:03:48;102239.94;;;12.25;100.00
25430;BME280;13360;48.152;-1.788;2023-01-13T03:09:05;102225.81;;;12.16;100.00
25430;BME280;13360;48.152;-1.788;2023-01-13T03:11:49;102228.31;;;12.17;100.00
25430;BME280;13360;48.152;-1.788;2023-01-13T03:14:18;102234.38;;;12.14;100.00
25430;BME280;13360;48.152;-1.788;2023-01-13T03:17:08;102244.38;;;12.15;100.00
25430;BME280;13360;48.152;-1.788;2023-01-13T03:20:04;102263.50;;;12.22;100.00
25430;BME280;13360;48.152;-1.788;2023-01-13T03:22:45;102265.75;;;12.30;100.00
25430;BME280;13360;48.152;-1.788;2023-01-13T03:25:23;102256.84;;;12.28;100.00
25430;BME280;13360;48.152;-1.788;2023-01-13T03:27:55;102245.47;;;12.19;100.00
25430;BME280;13360;48.152;-1.788;2023-01-13T03:30:27;102245.22;;;12.21;100.00
25430;BME280;13360;48.152;-1.788;2023-01-13T03:33:25;102238.56;;;12.17;100.00
25430;BME280;13360;48.152;-1.788;2023-01-13T03:35:52;102227.13;;;12.03;100.00
25430;BME280;13360;48.152;-1.788;2023-01-13T03:38:27;102236.72;;;11.85;100.00
25430;BME280;13360;48.152;-1.788;2023-01-13T03:40:57;102256.44;;;11.94;100.00
25430;BME280;13360;48.152;-1.788;2023-01-13T03:43:31;102248.97;;;11.95;100.00
25430;BME280;13360;48.152;-1.788;2023-01-13T03:46:38;102246.22;;;12.00;100.00
25430;BME280;13360;48.152;-1.788;2023-01-13T03:49:08;102259.03;;;12.11;100.00
25430;BME280;13360;48.152;-1.788;2023-01-13T03:51:38;102273.75;;;12.21;100.00
25430;BME280;13360;48.152;-1.788;2023-01-13T03:54:07;102268.53;;;12.30;100.00
25430;BME280;13360;48.152;-1.788;2023-01-13T03:56:39;102243.28;;;12.27;100.00
25430;BME280;13360;48.152;-1.788;2023-01-13T03:59:10;102243.06;;;12.33;100.00
25430;BME280;13360;48.152;-1.788;2023-01-13T04:01:44;102234.97;;;12.21;100.00
25430;BME280;13360;48.152;-1.788;2023-01-13T04:04:18;102249.66;;;12.27;100.00
25430;BME280;13360;48.152;-1.788;2023-01-13T04:09:50;102244.06;;;12.12;100.00
25430;BME280;13360;48.152;-1.788;2023-01-13T04:12:44;102253.44;;;12.06;100.00
25430;BME280;13360;48.152;-1.788;2023-01-13T04:15:40;102272.31;;;12.09;100.00
25430;BME280;13360;48.152;-1.788;2023-01-13T04:18:25;102286.47;;;12.12;100.00
25430;BME280;13360;48.152;-1.788;2023-01-13T04:20:53;102274.50;;;12.07;100.00
25430;BME280;13360;48.152;-1.788;2023-01-13T04:23:20;102283.69;;;12.12;100.00
25430;BME280;13360;48.152;-1.788;2023-01-13T04:25:46;102266.72;;;12.04;100.00
25430;BME280;13360;48.152;-1.788;2023-01-13T04:28:13;102271.72;;;12.07;100.00
25430;BME280;13360;48.152;-1.788;2023-01-13T04:30:38;102284.25;;;12.14;100.00
25430;BME280;13360;48.152;-1.788;2023-01-13T04:33:04;102288.16;;;12.24;100.00
25430;BME280;13360;48.152;-1.788;2023-01-13T04:35:31;102264.53;;;12.06;100.00
25430;BME280;13360;48.152;-1.788;2023-01-13T04:38:00;102282.25;;;12.05;100.00
25430;BME280;13360;48.152;-1.788;2023-01-13T04:40:25;102282.22;;;11.95;100.00
25430;BME280;13360;48.152;-1.788;2023-01-13T04:42:50;102282.47;;;11.93;100.00
25430;BME280;13360;48.152;-1.788;2023-01-13T04:45:16;102273.88;;;11.89;100.00
25430;BME280;13360;48.152;-1.788;2023-01-13T04:47:41;102273.00;;;11.84;100.00
25430;BME280;13360;48.152;-1.788;2023-01-13T04:50:08;102291.06;;;11.92;100.00
25430;BME280;13360;48.152;-1.788;2023-01-13T04:52:33;102271.88;;;11.80;100.00
25430;BME280;13360;48.152;-1.788;2023-01-13T04:54:59;102278.22;;;11.80;100.00
25430;BME280;13360;48.152;-1.788;2023-01-13T04:57:24;102298.25;;;11.93;100.00
25430;BME280;13360;48.152;-1.788;2023-01-13T04:59:50;102289.94;;;11.93;100.00
25430;BME280;13360;48.152;-1.788;2023-01-13T05:02:15;102275.84;;;11.94;100.00
25430;BME280;13360;48.152;-1.788;2023-01-13T05:04:47;102276.94;;;11.93;100.00
25430;BME280;13360;48.152;-1.788;2023-01-13T05:07:14;102265.84;;;11.88;100.00
25430;BME280;13360;48.152;-1.788;2023-01-13T05:09:39;102278.59;;;11.94;100.00
25430;BME280;13360;48.152;-1.788;2023-01-13T05:12:05;102263.06;;;11.88;100.00
25430;BME280;13360;48.152;-1.788;2023-01-13T05:14:49;102263.59;;;11.85;100.00
25430;BME280;13360;48.152;-1.788;2023-01-13T05:17:33;102260.16;;;11.68;100.00
25430;BME280;13360;48.152;-1.788;2023-01-13T05:19:59;102277.34;;;11.75;100.00
25430;BME280;13360;48.152;-1.788;2023-01-13T05:22:24;102283.22;;;11.83;100.00
25430;BME280;13360;48.152;-1.788;2023-01-13T05:25:09;102244.56;;;11.56;100.00
25430;BME280;13360;48.152;-1.788;2023-01-13T05:27:48;102257.31;;;11.57;100.00
25430;BME280;13360;48.152;-1.788;2023-01-13T05:30:14;102287.28;;;11.71;100.00
25430;BME280;13360;48.152;-1.788;2023-01-13T05:32:39;102267.63;;;11.67;100.00
25430;BME280;13360;48.152;-1.788;2023-01-13T05:35:05;102252.03;;;11.56;100.00
25430;BME280;13360;48.152;-1.788;2023-01-13T05:37:30;102278.34;;;11.58;100.00
25430;BME280;13360;48.152;-1.788;2023-01-13T05:39:56;102271.13;;;11.52;100.00
25430;BME280;13360;48.152;-1.788;2023-01-13T05:42:39;102274.44;;;11.54;100.00
25430;BME280;13360;48.152;-1.788;2023-01-13T05:45:23;102269.34;;;11.41;100.00
25430;BME280;13360;48.152;-1.788;2023-01-13T05:47:49;102275.19;;;11.45;100.00
25430;BME280;13360;48.152;-1.788;2023-01-13T05:50:15;102269.41;;;11.46;100.00
25430;BME280;13360;48.152;-1.788;2023-01-13T05:52:40;102267.69;;;11.40;100.00
25430;BME280;13360;48.152;-1.788;2023-01-13T05:55:06;102255.59;;;11.46;100.00
25430;BME280;13360;48.152;-1.788;2023-01-13T05:57:31;102251.72;;;11.47;100.00
25430;BME280;13360;48.152;-1.788;2023-01-13T05:59:57;102250.63;;;11.53;100.00
25430;BME280;13360;48.152;-1.788;2023-01-13T06:02:22;102225.63;;;11.38;100.00
25430;BME280;13360;48.152;-1.788;2023-01-13T06:04:48;102233.69;;;11.45;100.00
25430;BME280;13360;48.152;-1.788;2023-01-13T06:07:14;102221.47;;;11.36;100.00
25430;BME280;13360;48.152;-1.788;2023-01-13T06:09:39;102222.84;;;11.33;100.00
25430;BME280;13360;48.152;-1.788;2023-01-13T06:12:05;102235.56;;;11.34;100.00
25430;BME280;13360;48.152;-1.788;2023-01-13T06:14:30;102229.44;;;11.27;100.00
25430;BME280;13360;48.152;-1.788;2023-01-13T06:17:11;102238.91;;;11.41;100.00
25430;BME280;13360;48.152;-1.788;2023-01-13T06:19:37;102238.16;;;11.46;100.00
25430;BME280;13360;48.152;-1.788;2023-01-13T06:24:33;102228.38;;;11.38;100.00
25430;BME280;13360;48.152;-1.788;2023-01-13T06:26:59;102224.53;;;11.39;100.00
25430;BME280;13360;48.152;-1.788;2023-01-13T06:29:24;102216.22;;;11.39;100.00
25430;BME280;13360;48.152;-1.788;2023-01-13T06:31:50;102211.78;;;11.38;100.00
25430;BME280;13360;48.152;-1.788;2023-01-13T06:34:15;102212.16;;;11.47;100.00
25430;BME280;13360;48.152;-1.788;2023-01-13T06:36:44;102215.19;;;11.45;100.00
25430;BME280;13360;48.152;-1.788;2023-01-13T06:39:14;102214.66;;;11.48;100.00
25430;BME280;13360;48.152;-1.788;2023-01-13T06:41:41;102223.50;;;11.50;100.00
25430;BME280;13360;48.152;-1.788;2023-01-13T06:44:25;102216.75;;;11.36;100.00
25430;BME280;13360;48.152;-1.788;2023-01-13T06:46:51;102240.31;;;11.44;100.00
25430;BME280;13360;48.152;-1.788;2023-01-13T06:49:16;102235.94;;;11.48;100.00
25430;BME280;13360;48.152;-1.788;2023-01-13T06:51:41;102219.56;;;11.41;100.00
25430;BME280;13360;48.152;-1.788;2023-01-13T06:54:07;102217.94;;;11.45;100.00
25430;BME280;13360;48.152;-1.788;2023-01-13T06:56:33;102213.97;;;11.31;100.00
25430;BME280;13360;48.152;-1.788;2023-01-13T06:58:58;102214.50;;;11.28;100.00
25430;BME280;13360;48.152;-1.788;2023-01-13T07:01:23;102211.19;;;11.26;100.00
25430;BME280;13360;48.152;-1.788;2023-01-13T07:03:49;102216.16;;;11.29;100.00
25430;BME280;13360;48.152;-1.788;2023-01-13T07:06:14;102213.59;;;11.17;100.00
25430;BME280;13360;48.152;-1.788;2023-01-13T07:08:39;102231.63;;;11.25;100.00
25430;BME280;13360;48.152;-1.788;2023-01-13T07:11:05;102226.59;;;11.22;100.00
25430;BME280;13360;48.152;-1.788;2023-01-13T07:13:33;102221.34;;;11.20;100.00
25430;BME280;13360;48.152;-1.788;2023-01-13T07:16:17;102231.00;;;11.18;100.00
25430;BME280;13360;48.152;-1.788;2023-01-13T07:18:42;102223.84;;;11.22;100.00
25430;BME280;13360;48.152;-1.788;2023-01-13T07:21:09;102225.16;;;11.09;100.00
25430;BME280;13360;48.152;-1.788;2023-01-13T07:23:37;102219.66;;;11.14;100.00
25430;BME280;13360;48.152;-1.788;2023-01-13T07:26:03;102233.03;;;11.27;100.00
25430;BME280;13360;48.152;-1.788;2023-01-13T07:28:29;102226.69;;;11.32;100.00
25430;BME280;13360;48.152;-1.788;2023-01-13T07:30:55;102222.53;;;11.29;100.00
25430;BME280;13360;48.152;-1.788;2023-01-13T07:33:20;102227.16;;;11.24;100.00
25430;BME280;13360;48.152;-1.788;2023-01-13T07:35:46;102227.16;;;11.24;100.00
25430;BME280;13360;48.152;-1.788;2023-01-13T07:38:12;102245.22;;;11.32;100.00
25430;BME280;13360;48.152;-1.788;2023-01-13T07:40:38;102221.16;;;11.32;100.00
25430;BME280;13360;48.152;-1.788;2023-01-13T07:43:04;102219.50;;;11.31;100.00
25430;BME280;13360;48.152;-1.788;2023-01-13T07:45:48;102211.19;;;11.26;100.00
25430;BME280;13360;48.152;-1.788;2023-01-13T07:48:14;102216.44;;;11.27;100.00
25430;BME280;13360;48.152;-1.788;2023-01-13T07:50:39;102213.41;;;11.29;100.00
25430;BME280;13360;48.152;-1.788;2023-01-13T07:53:04;102217.53;;;11.26;100.00
25430;BME280;13360;48.152;-1.788;2023-01-13T07:55:30;102217.44;;;11.16;100.00
25430;BME280;13360;48.152;-1.788;2023-01-13T07:57:55;102224.78;;;11.00;100.00
25430;BME280;13360;48.152;-1.788;2023-01-13T08:00:21;102271.91;;;11.16;100.00
25430;BME280;13360;48.152;-1.788;2023-01-13T08:02:46;102290.78;;;11.24;100.00
25430;BME280;13360;48.152;-1.788;2023-01-13T08:05:12;102308.28;;;11.29;100.00
25430;BME280;13360;48.152;-1.788;2023-01-13T08:07:37;102298.31;;;11.28;100.00
25430;BME280;13360;48.152;-1.788;2023-01-13T08:10:03;102296.91;;;11.26;100.00
25430;BME280;13360;48.152;-1.788;2023-01-13T08:12:28;102310.22;;;11.29;100.00
25430;BME280;13360;48.152;-1.788;2023-01-13T08:15:12;102293.00;;;11.22;100.00
25430;BME280;13360;48.152;-1.788;2023-01-13T08:17:37;102319.06;;;11.26;100.00
25430;BME280;13360;48.152;-1.788;2023-01-13T08:20:04;102335.69;;;11.31;100.00
25430;BME280;13360;48.152;-1.788;2023-01-13T08:22:30;102311.78;;;11.20;100.00
25430;BME280;13360;48.152;-1.788;2023-01-13T08:24:58;102306.78;;;11.17;100.00
25430;BME280;13360;48.152;-1.788;2023-01-13T08:27:23;102312.28;;;11.12;100.00
25430;BME280;13360;48.152;-1.788;2023-01-13T08:29:48;102331.13;;;11.20;100.00
25430;BME280;13360;48.152;-1.788;2023-01-13T08:32:14;102332.81;;;11.21;100.00
25430;BME280;13360;48.152;-1.788;2023-01-13T08:34:39;102333.72;;;11.26;100.00
25430;BME280;13360;48.152;-1.788;2023-01-13T08:37:04;102336.47;;;11.26;100.00
25430;BME280;13360;48.152;-1.788;2023-01-13T08:39:30;102337.63;;;11.30;100.00
25430;BME280;13360;48.152;-1.788;2023-01-13T08:41:55;102330.69;;;11.28;100.00
25430;BME280;13360;48.152;-1.788;2023-01-13T08:44:28;102335.16;;;11.34;100.00
25430;BME280;13360;48.152;-1.788;2023-01-13T08:46:53;102334.03;;;11.30;100.00
25430;BME280;13360;48.152;-1.788;2023-01-13T08:49:21;102340.91;;;11.27;100.00
25430;BME280;13360;48.152;-1.788;2023-01-13T08:51:47;102356.22;;;11.40;100.00
25430;BME280;13360;48.152;-1.788;2023-01-13T08:54:12;102361.19;;;11.38;100.00
25430;BME280;13360;48.152;-1.788;2023-01-13T08:56:42;102373.97;;;11.44;100.00
25430;BME280;13360;48.152;-1.788;2023-01-13T08:59:13;102366.75;;;11.43;100.00
25430;BME280;13360;48.152;-1.788;2023-01-13T09:01:38;102362.59;;;11.41;100.00
25430;BME280;13360;48.152;-1.788;2023-01-13T09:04:06;102352.88;;;11.38;100.00
25430;BME280;13360;48.152;-1.788;2023-01-13T09:06:31;102343.97;;;11.31;100.00
25430;BME280;13360;48.152;-1.788;2023-01-13T09:08:57;102349.00;;;11.34;100.00
25430;BME280;13360;48.152;-1.788;2023-01-13T09:11:29;102333.47;;;11.33;100.00
25430;BME280;13360;48.152;-1.788;2023-01-13T09:14:21;102352.94;;;11.43;100.00
25430;BME280;13360;48.152;-1.788;2023-01-13T09:16:47;102352.16;;;11.48;100.00
25430;BME280;13360;48.152;-1.788;2023-01-13T09:19:12;102333.06;;;11.46;100.00
25430;BME280;13360;48.152;-1.788;2023-01-13T09:21:38;102335.47;;;11.38;100.00
25430;BME280;13360;48.152;-1.788;2023-01-13T09:24:03;102364.72;;;11.28;100.00
25430;BME280;13360;48.152;-1.788;2023-01-13T09:26:29;102401.03;;;11.37;100.00
25430;BME280;13360;48.152;-1.788;2023-01-13T09:28:54;102413.75;;;11.38;100.00
25430;BME280;13360;48.152;-1.788;2023-01-13T09:31:19;102444.34;;;11.53;100.00
25430;BME280;13360;48.152;-1.788;2023-01-13T09:33:45;102450.50;;;11.60;100.00
25430;BME280;13360;48.152;-1.788;2023-01-13T09:36:28;102452.75;;;11.64;100.00
25430;BME280;13360;48.152;-1.788;2023-01-13T09:38:54;102456.97;;;11.71;100.00
25430;BME280;13360;48.152;-1.788;2023-01-13T09:41:24;102477.25;;;11.77;100.00
25430;BME280;13360;48.152;-1.788;2023-01-13T09:44:12;102457.28;;;11.75;100.00
25430;BME280;13360;48.152;-1.788;2023-01-13T09:46:52;102459.28;;;11.79;100.00
25430;BME280;13360;48.152;-1.788;2023-01-13T09:49:32;102456.75;;;11.78;100.00
25430;BME280;13360;48.152;-1.788;2023-01-13T09:55:01;102490.19;;;11.98;100.00
25430;BME280;13360;48.152;-1.788;2023-01-13T09:57:28;102479.41;;;12.02;100.00
25430;BME280;13360;48.152;-1.788;2023-01-13T09:59:57;102462.50;;;11.98;100.00
25430;BME280;13360;48.152;-1.788;2023-01-13T10:02:53;102461.75;;;12.08;100.00
25430;BME280;13360;48.152;-1.788;2023-01-13T10:05:40;102473.88;;;12.02;100.00
25430;BME280;13360;48.152;-1.788;2023-01-13T10:08:11;102465.22;;;11.93;100.00
25430;BME280;13360;48.152;-1.788;2023-01-13T10:10:42;102460.22;;;11.90;100.00
25430;BME280;13360;48.152;-1.788;2023-01-13T10:13:22;102440.47;;;11.81;100.00
25430;BME280;13360;48.152;-1.788;2023-01-13T10:18:38;102440.31;;;11.93;100.00
25430;BME280;13360;48.152;-1.788;2023-01-13T10:23:59;102443.41;;;12.02;100.00
25430;BME280;13360;48.152;-1.788;2023-01-13T10:26:38;102430.13;;;12.04;100.00
25430;BME280;13360;48.152;-1.788;2023-01-13T10:29:24;102416.56;;;12.02;100.00
25430;BME280;13360;48.152;-1.788;2023-01-13T10:31:51;102412.16;;;12.06;100.00
25430;BME280;13360;48.152;-1.788;2023-01-13T10:34:17;102406.88;;;12.05;100.00
25430;BME280;13360;48.152;-1.788;2023-01-13T10:37:01;102418.88;;;12.15;100.00
25430;BME280;13360;48.152;-1.788;2023-01-13T10:39:38;102410.28;;;12.17;100.00
25430;BME280;13360;48.152;-1.788;2023-01-13T10:42:06;102405.50;;;12.07;100.00
25430;BME280;13360;48.152;-1.788;2023-01-13T10:44:45;102436.91;;;12.18;100.00
25430;BME280;13360;48.152;-1.788;2023-01-13T10:47:19;102446.06;;;12.24;100.00
25430;BME280;13360;48.152;-1.788;2023-01-13T10:50:39;102426.41;;;12.25;100.00
25430;BME280;13360;48.152;-1.788;2023-01-13T10:53:02;102441.19;;;12.36;100.00
25430;BME280;13360;48.152;-1.788;2023-01-13T10:55:33;102435.63;;;12.36;100.00
25430;BME280;13360;48.152;-1.788;2023-01-13T10:58:17;102433.41;;;12.38;100.00
25430;BME280;13360;48.152;-1.788;2023-01-13T11:00:43;102423.16;;;12.38;100.00
25430;BME280;13360;48.152;-1.788;2023-01-13T11:03:20;102432.34;;;12.44;100.00
25430;BME280;13360;48.152;-1.788;2023-01-13T11:08:17;102469.00;;;12.56;100.00
25430;BME280;13360;48.152;-1.788;2023-01-13T11:10:48;102450.16;;;12.53;100.00
25430;BME280;13360;48.152;-1.788;2023-01-13T11:13:18;102449.63;;;12.61;100.00
25430;BME280;13360;48.152;-1.788;2023-01-13T11:16:17;102428.56;;;12.60;100.00
25430;BME280;13360;48.152;-1.788;2023-01-13T11:18:48;102450.81;;;12.70;100.00
25430;BME280;13360;48.152;-1.788;2023-01-13T11:21:40;102419.16;;;12.66;100.00
25430;BME280;13360;48.152;-1.788;2023-01-13T11:24:37;102438.59;;;12.71;100.00
25430;BME280;13360;48.152;-1.788;2023-01-13T11:27:14;102433.63;;;12.73;100.00
25430;BME280;13360;48.152;-1.788;2023-01-13T11:35:17;102400.59;;;12.67;100.00
25430;BME280;13360;48.152;-1.788;2023-01-13T11:37:48;102401.13;;;12.59;100.00
25430;BME280;13360;48.152;-1.788;2023-01-13T11:40:36;102404.16;;;12.57;100.00
25430;BME280;13360;48.152;-1.788;2023-01-13T11:45:55;102392.50;;;12.50;100.00
25430;BME280;13360;48.152;-1.788;2023-01-13T11:48:24;102415.50;;;12.56;100.00
25430;BME280;13360;48.152;-1.788;2023-01-13T11:51:33;102416.06;;;12.52;100.00
25430;BME280;13360;48.152;-1.788;2023-01-13T12:10:58;102447.13;;;12.60;100.00
25430;BME280;13360;48.152;-1.788;2023-01-13T12:13:34;102466.81;;;12.58;100.00
25430;BME280;13360;48.152;-1.788;2023-01-13T12:18:41;102491.25;;;12.66;100.00
25430;BME280;13360;48.152;-1.788;2023-01-13T12:21:19;102525.34;;;12.67;100.00
25430;BME280;13360;48.152;-1.788;2023-01-13T12:23:53;102495.72;;;12.72;100.00
25430;BME280;13360;48.152;-1.788;2023-01-13T12:26:23;102465.72;;;12.64;100.00
25430;BME280;13360;48.152;-1.788;2023-01-13T12:31:50;102456.59;;;12.69;100.00
25430;BME280;13360;48.152;-1.788;2023-01-13T12:37:15;102426.59;;;12.56;100.00
25430;BME280;13360;48.152;-1.788;2023-01-13T12:42:20;102411.34;;;12.53;100.00
25430;BME280;13360;48.152;-1.788;2023-01-13T12:45:27;102403.31;;;12.57;100.00
25430;BME280;13360;48.152;-1.788;2023-01-13T12:47:53;102395.28;;;12.55;100.00
25430;BME280;13360;48.152;-1.788;2023-01-13T12:53:29;102423.63;;;12.72;100.00
25430;BME280;13360;48.152;-1.788;2023-01-13T12:56:36;102410.59;;;12.73;100.00
25430;BME280;13360;48.152;-1.788;2023-01-13T13:01:51;102379.28;;;12.72;100.00
25430;BME280;13360;48.152;-1.788;2023-01-13T13:04:49;102392.31;;;12.77;100.00
25430;BME280;13360;48.152;-1.788;2023-01-13T13:07:41;102374.56;;;12.78;100.00
25430;BME280;13360;48.152;-1.788;2023-01-13T13:10:15;102349.84;;;12.66;100.00
25430;BME280;13360;48.152;-1.788;2023-01-13T13:15:28;102358.22;;;12.76;100.00
25430;BME280;13360;48.152;-1.788;2023-01-13T13:23:28;102361.00;;;12.87;100.00
25430;BME280;13360;48.152;-1.788;2023-01-13T13:26:00;102349.06;;;12.81;100.00
25430;BME280;13360;48.152;-1.788;2023-01-13T13:28:27;102320.78;;;12.79;100.00
25430;BME280;13360;48.152;-1.788;2023-01-13T13:31:20;102313.56;;;12.78;100.00
25430;BME280;13360;48.152;-1.788;2023-01-13T13:34:15;102307.75;;;12.90;100.00
25430;BME280;13360;48.152;-1.788;2023-01-13T13:39:25;102286.13;;;12.87;100.00
25430;BME280;13360;48.152;-1.788;2023-01-13T13:45:00;102260.09;;;12.93;100.00
25430;BME280;13360;48.152;-1.788;2023-01-13T13:47:46;102273.41;;;12.96;100.00
25430;BME280;13360;48.152;-1.788;2023-01-13T13:50:20;102261.47;;;13.00;100.00
25430;BME280;13360;48.152;-1.788;2023-01-13T13:53:01;102278.13;;;13.05;100.00
25430;BME280;13360;48.152;-1.788;2023-01-13T13:55:30;102245.94;;;12.94;100.00
25430;BME280;13360;48.152;-1.788;2023-01-13T13:57:57;102230.97;;;13.00;100.00
25430;BME280;13360;48.152;-1.788;2023-01-13T14:00:36;102216.56;;;12.93;100.00
25430;BME280;13360;48.152;-1.788;2023-01-13T14:03:05;102210.16;;;12.98;100.00
25430;BME280;13360;48.152;-1.788;2023-01-13T14:05:33;102216.53;;;13.08;100.00
25430;BME280;13360;48.152;-1.788;2023-01-13T14:08:13;102183.53;;;13.02;100.00
25430;BME280;13360;48.152;-1.788;2023-01-13T14:10:40;102196.31;;;13.13;100.00
25430;BME280;13360;48.152;-1.788;2023-01-13T14:13:22;102218.22;;;13.20;100.00
25430;BME280;13360;48.152;-1.788;2023-01-13T14:15:57;102217.38;;;13.24;100.00
25430;BME280;13360;48.152;-1.788;2023-01-13T14:18:24;102211.56;;;13.21;100.00
25430;BME280;13360;48.152;-1.788;2023-01-13T14:20:54;102189.63;;;13.09;100.00
25430;BME280;13360;48.152;-1.788;2023-01-13T14:23:28;102220.16;;;13.14;100.00
25430;BME280;13360;48.152;-1.788;2023-01-13T14:25:54;102221.81;;;13.15;100.00